createdAt,value
2023-03-22T00:00:41.277Z,66.42
2023-03-22T00:03:12.902Z,66.27
2023-03-22T00:05:44.705Z,66.33
2023-03-22T00:08:16.517Z,67.01
2023-03-22T00:10:48.041Z,66.39
2023-03-22T00:13:19.866Z,67.03
2023-03-22T00:15:51.503Z,66.89
2023-03-22T00:18:23.779Z,67.09
2023-03-22T00:20:57.523Z,66.70
2023-03-22T00:23:29.515Z,67.35
2023-03-22T00:26:01.037Z,67.42
2023-03-22T00:28:32.574Z,66.85
2023-03-22T00:31:04.973Z,67.25
2023-03-22T00:33:37.439Z,67.49
2023-03-22T00:36:11.529Z,68.13
2023-03-22T00:38:44.262Z,67.85
2023-03-22T00:41:17.185Z,68.05
2023-03-22T00:43:50.306Z,68.02
2023-03-22T00:46:22.248Z,66.90
2023-03-22T00:48:53.897Z,68.36
2023-03-22T00:51:25.548Z,67.80
2023-03-22T00:53:57.151Z,67.89
2023-03-22T00:56:28.931Z,67.57
2023-03-22T00:59:00.653Z,67.90
2023-03-22T01:01:32.244Z,67.83
2023-03-22T01:04:05.447Z,67.80
2023-03-22T01:06:37.169Z,67.70
2023-03-22T01:09:09.280Z,68.46
2023-03-22T01:11:43.052Z,67.90
2023-03-22T01:14:14.562Z,68.59
2023-03-22T01:16:46.163Z,67.48
2023-03-22T01:19:17.959Z,67.36
2023-03-22T01:21:50.072Z,67.72
2023-03-22T01:24:21.704Z,67.93
2023-03-22T01:26:53.379Z,68.32
2023-03-22T01:29:25.790Z,68.07
2023-03-22T01:31:57.147Z,68.08
2023-03-22T01:34:28.690Z,68.19
2023-03-22T01:37:00.287Z,68.66
2023-03-22T01:39:32.262Z,68.28
2023-03-22T01:42:03.912Z,68.56
2023-03-22T01:44:36.915Z,68.73
2023-03-22T01:47:10.868Z,68.75
2023-03-22T01:49:42.604Z,69.50
2023-03-22T01:52:15.458Z,68.81
2023-03-22T01:54:52.583Z,69.34
2023-03-22T01:57:24.777Z,69.37
2023-03-22T01:59:56.368Z,69.42
2023-03-22T02:02:30.831Z,69.13
2023-03-22T02:05:04.205Z,69.40
2023-03-22T02:07:38.345Z,69.80
2023-03-22T02:10:15.739Z,69.38
2023-03-22T02:13:02.688Z,69.52
2023-03-22T02:15:51.658Z,69.73
2023-03-22T02:18:50.282Z,69.35
2023-03-22T02:21:36.534Z,70.04
2023-03-22T02:24:34.826Z,69.64
2023-03-22T02:27:35.897Z,69.87
2023-03-22T02:30:37.219Z,70.18
2023-03-22T02:33:50.431Z,70.29
2023-03-22T02:36:40.609Z,70.71
2023-03-22T02:39:17.813Z,70.01
2023-03-22T02:41:57.532Z,70.60
2023-03-22T02:44:45.252Z,70.89
2023-03-22T02:47:20.673Z,70.72
2023-03-22T02:49:52.170Z,71.26
2023-03-22T02:52:32.371Z,71.45
2023-03-22T02:55:12.569Z,71.24
2023-03-22T02:57:50.516Z,71.47
2023-03-22T03:00:22.273Z,71.81
2023-03-22T03:03:00.078Z,71.77
2023-03-22T03:05:33.499Z,71.78
2023-03-22T03:08:07.057Z,72.22
2023-03-22T03:10:41.571Z,71.63
2023-03-22T03:13:16.211Z,71.98
2023-03-22T03:15:59.255Z,71.77
2023-03-22T03:18:46.547Z,72.07
2023-03-22T03:21:18.118Z,72.57
2023-03-22T03:24:01.820Z,72.04
2023-03-22T03:26:44.770Z,72.27
2023-03-22T03:29:25.517Z,72.54
2023-03-22T03:32:08.237Z,72.26
2023-03-22T03:34:43.653Z,72.33
2023-03-22T03:37:53.690Z,72.25
2023-03-22T03:40:40.686Z,72.13
2023-03-22T03:43:12.991Z,71.86
2023-03-22T03:45:44.887Z,71.69
2023-03-22T03:48:26.424Z,72.29
2023-03-22T03:51:00.231Z,72.33
2023-03-22T03:53:32.115Z,71.95
2023-03-22T03:56:03.966Z,72.14
2023-03-22T03:58:35.525Z,71.98
2023-03-22T04:01:07.362Z,72.08
2023-03-22T04:03:38.941Z,72.48
2023-03-22T04:06:10.448Z,72.19
2023-03-22T04:08:45.452Z,72.23
2023-03-22T04:11:17.047Z,71.96
2023-03-22T04:13:48.614Z,72.28
2023-03-22T04:16:20.205Z,72.80
2023-03-22T04:18:52.002Z,72.85
2023-03-22T04:21:23.686Z,72.56
2023-03-22T04:23:55.981Z,72.28
2023-03-22T04:26:27.370Z,72.67
2023-03-22T04:28:59.268Z,72.53
2023-03-22T04:31:32.580Z,72.25
2023-03-22T04:34:07.108Z,72.16
2023-03-22T04:36:41.863Z,72.54
2023-03-22T04:39:13.696Z,72.96
2023-03-22T04:41:45.252Z,72.46
2023-03-22T04:44:16.913Z,72.72
2023-03-22T04:46:49.864Z,72.93
2023-03-22T04:49:21.935Z,73.47
2023-03-22T04:51:57.579Z,73.99
2023-03-22T04:54:29.375Z,73.57
2023-03-22T04:57:01.044Z,73.32
2023-03-22T04:59:34.722Z,73.52
2023-03-22T05:02:06.457Z,73.18
2023-03-22T05:04:38.052Z,73.33
2023-03-22T05:07:09.533Z,73.68
2023-03-22T05:09:41.546Z,73.75
2023-03-22T05:12:13.891Z,74.05
2023-03-22T05:14:45.403Z,74.25
2023-03-22T05:17:17.034Z,74.50
2023-03-22T05:19:48.748Z,74.46
2023-03-22T05:22:22.492Z,74.30
2023-03-22T05:24:54.017Z,74.01
2023-03-22T05:27:31.510Z,74.31
2023-03-22T05:30:04.102Z,74.61
2023-03-22T05:32:37.505Z,74.37
2023-03-22T05:35:09.536Z,74.23
2023-03-22T05:37:41.555Z,74.63
2023-03-22T05:40:13.444Z,74.88
2023-03-22T05:42:45.444Z,74.63
2023-03-22T05:45:18.604Z,74.32
2023-03-22T05:47:50.570Z,74.53
2023-03-22T05:50:23.600Z,74.27
2023-03-22T05:52:55.135Z,74.53
2023-03-22T05:55:27.150Z,74.32
2023-03-22T05:58:02.038Z,74.48
2023-03-22T06:00:35.748Z,74.55
2023-03-22T06:03:08.250Z,75.41
2023-03-22T06:05:39.805Z,74.84
2023-03-22T06:08:12.632Z,74.11
2023-03-22T06:10:44.318Z,74.31
2023-03-22T06:13:15.945Z,74.40
2023-03-22T06:15:47.672Z,74.26
2023-03-22T06:18:19.296Z,74.10
2023-03-22T06:20:50.865Z,72.72
2023-03-22T06:23:22.759Z,72.35
2023-03-22T06:25:54.386Z,72.79
2023-03-22T06:28:29.805Z,71.80
2023-03-22T06:31:09.563Z,72.56
2023-03-22T06:33:41.309Z,71.82
2023-03-22T06:36:12.863Z,71.59
2023-03-22T06:38:44.459Z,70.65
2023-03-22T06:41:16.043Z,69.76
2023-03-22T06:43:47.578Z,69.75
2023-03-22T06:46:19.202Z,68.92
2023-03-22T06:48:50.799Z,68.74
2023-03-22T06:51:22.494Z,67.30
2023-03-22T06:53:54.555Z,66.99
2023-03-22T06:56:27.023Z,66.26
2023-03-22T06:58:58.597Z,65.11
2023-03-22T07:01:31.976Z,65.19
2023-03-22T07:04:04.070Z,64.92
2023-03-22T07:06:35.914Z,64.12
2023-03-22T07:09:10.288Z,63.97
2023-03-22T07:11:43.564Z,63.74
2023-03-22T07:14:15.414Z,63.61
2023-03-22T07:16:46.995Z,63.44
2023-03-22T07:19:18.756Z,63.35
2023-03-22T07:21:50.399Z,62.99
2023-03-22T07:24:22.007Z,62.44
2023-03-22T07:26:53.763Z,62.95
2023-03-22T07:29:25.385Z,62.47
2023-03-22T07:31:57.190Z,62.76
2023-03-22T07:34:28.852Z,62.83
2023-03-22T07:37:00.426Z,62.38
2023-03-22T07:39:34.286Z,62.08
2023-03-22T07:42:06.812Z,61.76
2023-03-22T07:44:38.469Z,61.34
2023-03-22T07:47:10.029Z,60.77
2023-03-22T07:49:41.669Z,60.27
2023-03-22T07:52:13.260Z,59.36
2023-03-22T07:54:44.796Z,59.42
2023-03-22T07:57:16.538Z,59.65
2023-03-22T07:59:48.043Z,59.46
2023-03-22T08:02:19.888Z,59.70
2023-03-22T08:04:56.515Z,59.44
2023-03-22T08:07:30.331Z,59.20
2023-03-22T08:10:02.169Z,59.33
2023-03-22T08:12:33.811Z,59.25
2023-03-22T08:15:06.114Z,58.76
2023-03-22T08:17:37.686Z,57.85
2023-03-22T08:20:09.673Z,57.23
2023-03-22T08:22:42.443Z,56.66
2023-03-22T08:25:16.947Z,56.88
2023-03-22T08:27:48.801Z,55.55
2023-03-22T08:30:22.110Z,55.37
2023-03-22T08:32:53.662Z,54.47
2023-03-22T08:35:25.497Z,54.19
2023-03-22T08:37:57.164Z,53.25
2023-03-22T08:40:28.798Z,52.63
2023-03-22T08:43:00.827Z,52.15
2023-03-22T08:45:32.553Z,51.50
2023-03-22T08:48:04.481Z,51.80
2023-03-22T08:50:36.100Z,51.51
2023-03-22T08:53:07.647Z,51.18
2023-03-22T08:55:40.148Z,50.97
2023-03-22T08:58:12.903Z,50.71
2023-03-22T09:00:49.002Z,50.90
2023-03-22T09:03:21.193Z,49.22
2023-03-22T09:05:52.840Z,48.94
2023-03-22T09:08:24.378Z,49.21
2023-03-22T09:10:56.234Z,49.63
2023-03-22T09:13:28.605Z,49.17
2023-03-22T09:16:01.633Z,48.38
2023-03-22T09:18:33.334Z,47.94
2023-03-22T09:21:07.318Z,48.40
2023-03-22T09:23:39.420Z,47.78
2023-03-22T09:26:11.290Z,48.01
2023-03-22T09:28:43.315Z,48.53
2023-03-22T09:31:15.186Z,47.87
2023-03-22T09:33:47.212Z,48.36
2023-03-22T09:36:20.032Z,47.55
2023-03-22T09:38:51.602Z,47.90
2023-03-22T09:41:39.701Z,47.34
2023-03-22T09:44:18.417Z,46.91
2023-03-22T09:46:53.953Z,47.17
2023-03-22T09:49:50.502Z,47.04
2023-03-22T09:52:24.697Z,47.08
2023-03-22T09:54:56.281Z,46.65
2023-03-22T09:57:35.223Z,46.14
2023-03-22T10:00:18.839Z,45.54
2023-03-22T10:03:01.820Z,44.91
2023-03-22T10:05:36.672Z,45.81
2023-03-22T10:08:22.652Z,45.35
2023-03-22T10:10:54.497Z,44.13
2023-03-22T10:13:40.565Z,43.84
2023-03-22T10:16:21.183Z,44.89
2023-03-22T10:19:01.686Z,43.86
2023-03-22T10:21:33.718Z,43.84
2023-03-22T10:24:18.358Z,43.62
2023-03-22T10:26:51.312Z,43.16
2023-03-22T10:29:35.085Z,42.40
2023-03-22T10:32:22.684Z,42.47
2023-03-22T10:34:54.487Z,42.04
2023-03-22T10:37:34.919Z,41.88
2023-03-22T10:40:08.428Z,41.38
2023-03-22T10:42:41.294Z,41.75
2023-03-22T10:45:15.929Z,41.36
2023-03-22T10:48:00.052Z,41.31
2023-03-22T10:50:40.749Z,40.97
2023-03-22T10:53:46.012Z,40.01
2023-03-22T10:56:20.139Z,40.54
2023-03-22T10:58:52.382Z,40.04
2023-03-22T11:01:31.476Z,40.00
2023-03-22T11:04:14.439Z,39.74
2023-03-22T11:06:54.598Z,39.38
2023-03-22T11:09:27.087Z,39.83
2023-03-22T11:11:59.468Z,39.16
2023-03-22T11:14:35.633Z,39.39
2023-03-22T11:17:12.613Z,39.12
2023-03-22T11:19:54.888Z,39.24
2023-03-22T11:22:26.339Z,38.58
2023-03-22T11:24:59.015Z,38.68
2023-03-22T11:27:36.373Z,38.81
2023-03-22T11:30:22.081Z,38.47
2023-03-22T11:33:17.958Z,38.37
2023-03-22T11:35:56.683Z,38.33
2023-03-22T11:38:36.488Z,38.18
2023-03-22T11:41:15.389Z,37.81
2023-03-22T11:43:54.105Z,37.99
2023-03-22T11:46:26.122Z,38.04
2023-03-22T11:49:04.214Z,37.53
2023-03-22T11:51:39.156Z,37.51
2023-03-22T11:54:20.891Z,37.79
2023-03-22T11:56:57.968Z,37.47
2023-03-22T11:59:37.156Z,37.16
2023-03-22T12:02:18.301Z,37.16
2023-03-22T12:04:57.498Z,37.05
2023-03-22T12:07:31.926Z,36.96
2023-03-22T12:10:24.678Z,36.89
2023-03-22T12:13:03.215Z,36.94
2023-03-22T12:15:48.414Z,36.22
2023-03-22T12:18:23.045Z,36.05
2023-03-22T12:20:55.851Z,34.99
2023-03-22T12:23:30.821Z,35.62
2023-03-22T12:26:13.012Z,34.97
2023-03-22T12:28:53.729Z,35.23
2023-03-22T12:31:31.530Z,35.00
2023-03-22T12:34:18.904Z,35.53
2023-03-22T12:36:56.786Z,34.88
2023-03-22T12:39:39.848Z,34.77
2023-03-22T12:42:26.533Z,34.02
2023-03-22T12:45:28.985Z,33.87
2023-03-22T12:48:07.028Z,33.50
2023-03-22T12:50:48.871Z,33.58
2023-03-22T12:53:25.791Z,33.48
2023-03-22T12:55:58.556Z,33.46
2023-03-22T12:58:30.420Z,33.14
2023-03-22T13:01:20.896Z,32.69
2023-03-22T13:03:55.407Z,31.89
2023-03-22T13:06:33.245Z,31.95
2023-03-22T13:09:16.223Z,32.67
2023-03-22T13:12:09.214Z,32.09
2023-03-22T13:14:51.211Z,32.40
2023-03-22T13:17:22.612Z,31.55
2023-03-22T13:19:58.355Z,30.99
2023-03-22T13:22:35.968Z,31.02
2023-03-22T13:25:12.501Z,30.26
2023-03-22T13:28:03.911Z,29.64
2023-03-22T13:30:47.740Z,29.68
2023-03-22T13:33:29.391Z,28.84
2023-03-22T13:36:07.264Z,28.39
2023-03-22T13:38:44.660Z,25.48
2023-03-22T13:41:33.616Z,25.21
2023-03-22T13:44:51.917Z,24.53
2023-03-22T13:47:35.472Z,24.31
2023-03-22T13:50:12.175Z,22.65
2023-03-22T13:52:56.899Z,22.03
2023-03-22T13:55:47.059Z,22.54
2023-03-22T13:58:36.679Z,22.35
2023-03-22T14:01:26.649Z,21.80
2023-03-22T14:04:01.259Z,21.62
2023-03-22T14:06:39.105Z,21.02
2023-03-22T14:09:29.621Z,19.33
2023-03-22T14:12:21.378Z,17.84
2023-03-22T14:14:57.378Z,16.89
2023-03-22T14:17:48.778Z,16.09
2023-03-22T14:20:24.735Z,17.06
